sensor_id;sensor_type;location;lat;lon;timestamp;P1;durP1;ratioP1;P2;durP2;ratioP2
73084;SDS011;62974;49.460;10.892;2022-09-09T00:01:14;57.53;;;55.53;;
73084;SDS011;62974;49.460;10.892;2022-09-09T00:03:55;60.63;;;58.20;;
73084;SDS011;62974;49.460;10.892;2022-09-09T00:06:28;59.53;;;57.53;;
73084;SDS011;62974;49.460;10.892;2022-09-09T00:09:00;60.57;;;58.57;;
73084;SDS011;62974;49.460;10.892;2022-09-09T00:11:36;58.07;;;55.93;;
73084;SDS011;62974;49.460;10.892;2022-09-09T00:14:11;59.60;;;57.60;;
73084;SDS011;62974;49.460;10.892;2022-09-09T00:16:45;61.47;;;59.40;;
73084;SDS011;62974;49.460;10.892;2022-09-09T00:19:19;60.10;;;58.00;;
73084;SDS011;62974;49.460;10.892;2022-09-09T00:21:53;58.47;;;56.47;;
73084;SDS011;62974;49.460;10.892;2022-09-09T00:24:29;61.57;;;59.20;;
73084;SDS011;62974;49.460;10.892;2022-09-09T00:27:04;59.50;;;56.97;;
73084;SDS011;62974;49.460;10.892;2022-09-09T00:29:37;59.60;;;57.50;;
73084;SDS011;62974;49.460;10.892;2022-09-09T00:32:12;58.73;;;56.63;;
73084;SDS011;62974;49.460;10.892;2022-09-09T00:34:47;58.57;;;56.30;;
73084;SDS011;62974;49.460;10.892;2022-09-09T00:37:17;60.40;;;58.33;;
73084;SDS011;62974;49.460;10.892;2022-09-09T00:39:46;62.63;;;60.30;;
73084;SDS011;62974;49.460;10.892;2022-09-09T00:42:16;61.30;;;59.20;;
73084;SDS011;62974;49.460;10.892;2022-09-09T00:44:56;58.70;;;56.60;;
73084;SDS011;62974;49.460;10.892;2022-09-09T00:47:38;63.27;;;61.07;;
73084;SDS011;62974;49.460;10.892;2022-09-09T00:50:15;58.07;;;55.97;;
73084;SDS011;62974;49.460;10.892;2022-09-09T00:52:54;60.90;;;58.60;;
73084;SDS011;62974;49.460;10.892;2022-09-09T00:55:33;59.67;;;57.57;;
73084;SDS011;62974;49.460;10.892;2022-09-09T00:58:09;59.43;;;57.13;;
73084;SDS011;62974;49.460;10.892;2022-09-09T01:00:39;61.30;;;59.20;;
73084;SDS011;62974;49.460;10.892;2022-09-09T01:03:14;59.83;;;57.10;;
73084;SDS011;62974;49.460;10.892;2022-09-09T01:05:54;57.90;;;55.80;;
73084;SDS011;62974;49.460;10.892;2022-09-09T01:08:38;58.63;;;56.43;;
73084;SDS011;62974;49.460;10.892;2022-09-09T01:11:16;58.70;;;56.53;;
73084;SDS011;62974;49.460;10.892;2022-09-09T01:13:49;58.00;;;56.00;;
73084;SDS011;62974;49.460;10.892;2022-09-09T01:16:26;59.30;;;57.20;;
73084;SDS011;62974;49.460;10.892;2022-09-09T01:18:57;62.53;;;60.33;;
73084;SDS011;62974;49.460;10.892;2022-09-09T01:21:30;57.90;;;55.80;;
73084;SDS011;62974;49.460;10.892;2022-09-09T01:24:15;59.70;;;57.50;;
73084;SDS011;62974;49.460;10.892;2022-09-09T01:26:50;58.30;;;56.30;;
73084;SDS011;62974;49.460;10.892;2022-09-09T01:29:20;60.23;;;58.23;;
73084;SDS011;62974;49.460;10.892;2022-09-09T01:31:53;58.67;;;56.47;;
73084;SDS011;62974;49.460;10.892;2022-09-09T01:34:23;58.83;;;56.83;;
73084;SDS011;62974;49.460;10.892;2022-09-09T01:36:53;59.43;;;57.13;;
73084;SDS011;62974;49.460;10.892;2022-09-09T01:39:26;59.20;;;57.20;;
73084;SDS011;62974;49.460;10.892;2022-09-09T01:41:56;59.73;;;57.37;;
73084;SDS011;62974;49.460;10.892;2022-09-09T01:44:24;58.23;;;56.13;;
73084;SDS011;62974;49.460;10.892;2022-09-09T01:46:52;58.20;;;56.03;;
73084;SDS011;62974;49.460;10.892;2022-09-09T01:49:20;58.77;;;56.67;;
73084;SDS011;62974;49.460;10.892;2022-09-09T01:51:49;58.50;;;56.30;;
73084;SDS011;62974;49.460;10.892;2022-09-09T01:54:19;59.40;;;57.23;;
73084;SDS011;62974;49.460;10.892;2022-09-09T01:56:51;58.33;;;56.17;;
73084;SDS011;62974;49.460;10.892;2022-09-09T01:59:32;60.40;;;57.87;;
73084;SDS011;62974;49.460;10.892;2022-09-09T02:02:17;60.57;;;58.47;;
73084;SDS011;62974;49.460;10.892;2022-09-09T02:04:47;60.40;;;58.37;;
73084;SDS011;62974;49.460;10.892;2022-09-09T02:07:21;59.93;;;57.37;;
73084;SDS011;62974;49.460;10.892;2022-09-09T02:10:00;60.97;;;58.80;;
73084;SDS011;62974;49.460;10.892;2022-09-09T02:12:34;61.20;;;59.00;;
73084;SDS011;62974;49.460;10.892;2022-09-09T02:15:07;59.33;;;57.30;;
73084;SDS011;62974;49.460;10.892;2022-09-09T02:17:42;59.17;;;57.07;;
73084;SDS011;62974;49.460;10.892;2022-09-09T02:20:10;59.30;;;57.10;;
73084;SDS011;62974;49.460;10.892;2022-09-09T02:22:41;61.60;;;59.37;;
73084;SDS011;62974;49.460;10.892;2022-09-09T02:25:12;62.23;;;59.83;;
73084;SDS011;62974;49.460;10.892;2022-09-09T02:27:43;61.87;;;59.67;;
73084;SDS011;62974;49.460;10.892;2022-09-09T02:30:14;60.83;;;58.53;;
73084;SDS011;62974;49.460;10.892;2022-09-09T02:32:42;60.43;;;58.13;;
73084;SDS011;62974;49.460;10.892;2022-09-09T02:35:14;62.10;;;59.80;;
73084;SDS011;62974;49.460;10.892;2022-09-09T02:37:44;63.63;;;61.43;;
73084;SDS011;62974;49.460;10.892;2022-09-09T02:40:13;64.90;;;62.60;;
73084;SDS011;62974;49.460;10.892;2022-09-09T02:42:45;64.23;;;61.43;;
73084;SDS011;62974;49.460;10.892;2022-09-09T02:45:15;64.10;;;61.83;;
73084;SDS011;62974;49.460;10.892;2022-09-09T02:47:47;64.90;;;62.50;;
73084;SDS011;62974;49.460;10.892;2022-09-09T02:50:19;65.70;;;63.47;;
73084;SDS011;62974;49.460;10.892;2022-09-09T02:52:59;64.00;;;61.70;;
73084;SDS011;62974;49.460;10.892;2022-09-09T02:55:38;66.47;;;64.13;;
73084;SDS011;62974;49.460;10.892;2022-09-09T02:58:10;65.03;;;62.80;;
73084;SDS011;62974;49.460;10.892;2022-09-09T03:00:43;63.10;;;61.00;;
73084;SDS011;62974;49.460;10.892;2022-09-09T03:03:12;59.77;;;57.67;;
73084;SDS011;62974;49.460;10.892;2022-09-09T03:05:42;64.03;;;61.53;;
73084;SDS011;62974;49.460;10.892;2022-09-09T03:08:10;61.63;;;59.53;;
73084;SDS011;62974;49.460;10.892;2022-09-09T03:10:39;63.37;;;61.17;;
73084;SDS011;62974;49.460;10.892;2022-09-09T03:13:07;60.47;;;58.37;;
73084;SDS011;62974;49.460;10.892;2022-09-09T03:15:36;66.50;;;64.10;;
73084;SDS011;62974;49.460;10.892;2022-09-09T03:18:04;63.70;;;61.40;;
73084;SDS011;62974;49.460;10.892;2022-09-09T03:20:31;67.03;;;64.57;;
73084;SDS011;62974;49.460;10.892;2022-09-09T03:23:00;63.70;;;61.40;;
73084;SDS011;62974;49.460;10.892;2022-09-09T03:25:28;65.87;;;63.40;;
73084;SDS011;62974;49.460;10.892;2022-09-09T03:27:56;65.77;;;63.47;;
73084;SDS011;62974;49.460;10.892;2022-09-09T03:30:24;62.23;;;60.13;;
73084;SDS011;62974;49.460;10.892;2022-09-09T03:32:54;63.63;;;61.10;;
73084;SDS011;62974;49.460;10.892;2022-09-09T03:35:22;60.47;;;58.37;;
73084;SDS011;62974;49.460;10.892;2022-09-09T03:37:50;64.80;;;62.40;;
73084;SDS011;62974;49.460;10.892;2022-09-09T03:40:18;62.13;;;59.93;;
73084;SDS011;62974;49.460;10.892;2022-09-09T03:42:46;61.10;;;58.80;;
73084;SDS011;62974;49.460;10.892;2022-09-09T03:45:14;66.17;;;63.77;;
73084;SDS011;62974;49.460;10.892;2022-09-09T03:47:43;63.23;;;60.20;;
73084;SDS011;62974;49.460;10.892;2022-09-09T03:50:12;59.73;;;57.50;;
73084;SDS011;62974;49.460;10.892;2022-09-09T03:52:40;64.93;;;62.53;;
73084;SDS011;62974;49.460;10.892;2022-09-09T03:55:08;63.80;;;61.50;;
73084;SDS011;62974;49.460;10.892;2022-09-09T03:57:36;64.63;;;62.33;;
73084;SDS011;62974;49.460;10.892;2022-09-09T04:00:04;60.50;;;58.30;;
73084;SDS011;62974;49.460;10.892;2022-09-09T04:02:33;63.10;;;60.70;;
73084;SDS011;62974;49.460;10.892;2022-09-09T04:05:01;65.57;;;63.17;;
73084;SDS011;62974;49.460;10.892;2022-09-09T04:07:29;65.07;;;62.77;;
73084;SDS011;62974;49.460;10.892;2022-09-09T04:09:57;65.57;;;63.00;;
73084;SDS011;62974;49.460;10.892;2022-09-09T04:12:25;66.13;;;63.53;;
73084;SDS011;62974;49.460;10.892;2022-09-09T04:14:53;64.70;;;62.40;;
73084;SDS011;62974;49.460;10.892;2022-09-09T04:17:20;64.20;;;61.83;;
73084;SDS011;62974;49.460;10.892;2022-09-09T04:19:48;66.23;;;63.90;;
73084;SDS011;62974;49.460;10.892;2022-09-09T04:22:15;65.57;;;62.73;;
73084;SDS011;62974;49.460;10.892;2022-09-09T04:24:44;65.80;;;63.40;;
73084;SDS011;62974;49.460;10.892;2022-09-09T04:27:14;67.93;;;65.20;;
73084;SDS011;62974;49.460;10.892;2022-09-09T04:29:41;63.77;;;61.17;;
73084;SDS011;62974;49.460;10.892;2022-09-09T04:32:09;67.17;;;64.67;;
73084;SDS011;62974;49.460;10.892;2022-09-09T04:34:37;61.10;;;59.00;;
73084;SDS011;62974;49.460;10.892;2022-09-09T04:37:04;64.37;;;62.07;;
73084;SDS011;62974;49.460;10.892;2022-09-09T04:39:32;65.70;;;63.30;;
73084;SDS011;62974;49.460;10.892;2022-09-09T04:42:01;61.50;;;59.30;;
73084;SDS011;62974;49.460;10.892;2022-09-09T04:44:29;62.47;;;60.07;;
73084;SDS011;62974;49.460;10.892;2022-09-09T04:46:56;64.90;;;62.50;;
73084;SDS011;62974;49.460;10.892;2022-09-09T04:49:24;60.17;;;58.07;;
73084;SDS011;62974;49.460;10.892;2022-09-09T04:51:52;58.33;;;56.33;;
73084;SDS011;62974;49.460;10.892;2022-09-09T04:54:19;61.17;;;58.87;;
73084;SDS011;62974;49.460;10.892;2022-09-09T04:56:47;59.37;;;57.37;;
73084;SDS011;62974;49.460;10.892;2022-09-09T04:59:18;59.97;;;57.57;;
73084;SDS011;62974;49.460;10.892;2022-09-09T05:01:46;62.30;;;60.10;;
73084;SDS011;62974;49.460;10.892;2022-09-09T05:04:14;60.03;;;57.93;;
73084;SDS011;62974;49.460;10.892;2022-09-09T05:06:42;62.73;;;60.43;;
73084;SDS011;62974;49.460;10.892;2022-09-09T05:09:09;60.93;;;58.83;;
73084;SDS011;62974;49.460;10.892;2022-09-09T05:11:37;65.77;;;63.33;;
73084;SDS011;62974;49.460;10.892;2022-09-09T05:14:05;65.03;;;62.73;;
73084;SDS011;62974;49.460;10.892;2022-09-09T05:16:34;66.90;;;64.50;;
73084;SDS011;62974;49.460;10.892;2022-09-09T05:19:01;63.07;;;60.80;;
73084;SDS011;62974;49.460;10.892;2022-09-09T05:21:30;62.80;;;60.40;;
73084;SDS011;62974;49.460;10.892;2022-09-09T05:23:57;65.60;;;63.10;;
73084;SDS011;62974;49.460;10.892;2022-09-09T05:26:26;62.70;;;60.40;;
73084;SDS011;62974;49.460;10.892;2022-09-09T05:28:55;62.70;;;60.60;;
73084;SDS011;62974;49.460;10.892;2022-09-09T05:31:23;66.20;;;63.40;;
73084;SDS011;62974;49.460;10.892;2022-09-09T05:33:55;64.80;;;62.30;;
73084;SDS011;62974;49.460;10.892;2022-09-09T05:36:22;63.30;;;60.80;;
73084;SDS011;62974;49.460;10.892;2022-09-09T05:38:50;68.63;;;65.50;;
73084;SDS011;62974;49.460;10.892;2022-09-09T05:41:19;65.50;;;63.03;;
73084;SDS011;62974;49.460;10.892;2022-09-09T05:43:49;60.10;;;58.00;;
73084;SDS011;62974;49.460;10.892;2022-09-09T05:46:17;63.67;;;61.10;;
73084;SDS011;62974;49.460;10.892;2022-09-09T05:48:47;60.90;;;58.50;;
73084;SDS011;62974;49.460;10.892;2022-09-09T05:51:19;60.10;;;57.90;;
73084;SDS011;62974;49.460;10.892;2022-09-09T05:53:48;63.43;;;60.93;;
73084;SDS011;62974;49.460;10.892;2022-09-09T05:56:17;61.17;;;58.70;;
73084;SDS011;62974;49.460;10.892;2022-09-09T05:58:48;60.40;;;58.30;;
73084;SDS011;62974;49.460;10.892;2022-09-09T06:01:17;59.93;;;57.80;;
73084;SDS011;62974;49.460;10.892;2022-09-09T06:03:46;60.57;;;58.37;;
73084;SDS011;62974;49.460;10.892;2022-09-09T06:06:15;61.70;;;59.40;;
73084;SDS011;62974;49.460;10.892;2022-09-09T06:08:49;61.23;;;59.10;;
73084;SDS011;62974;49.460;10.892;2022-09-09T06:11:19;64.30;;;62.03;;
73084;SDS011;62974;49.460;10.892;2022-09-09T06:13:48;64.33;;;61.83;;
73084;SDS011;62974;49.460;10.892;2022-09-09T06:16:17;59.30;;;57.10;;
73084;SDS011;62974;49.460;10.892;2022-09-09T06:18:46;59.80;;;57.33;;
73084;SDS011;62974;49.460;10.892;2022-09-09T06:21:15;65.50;;;62.43;;
73084;SDS011;62974;49.460;10.892;2022-09-09T06:23:44;65.63;;;63.27;;
73084;SDS011;62974;49.460;10.892;2022-09-09T06:26:13;65.00;;;62.40;;
73084;SDS011;62974;49.460;10.892;2022-09-09T06:28:43;67.57;;;65.07;;
73084;SDS011;62974;49.460;10.892;2022-09-09T06:31:12;63.50;;;61.13;;
73084;SDS011;62974;49.460;10.892;2022-09-09T06:33:41;61.53;;;59.17;;
73084;SDS011;62974;49.460;10.892;2022-09-09T06:36:11;59.13;;;57.03;;
73084;SDS011;62974;49.460;10.892;2022-09-09T06:38:40;59.50;;;57.50;;
73084;SDS011;62974;49.460;10.892;2022-09-09T06:41:08;59.90;;;57.77;;
73084;SDS011;62974;49.460;10.892;2022-09-09T06:43:38;65.77;;;63.47;;
73084;SDS011;62974;49.460;10.892;2022-09-09T06:46:06;60.90;;;58.57;;
73084;SDS011;62974;49.460;10.892;2022-09-09T06:48:38;59.77;;;57.57;;
73084;SDS011;62974;49.460;10.892;2022-09-09T06:51:08;65.90;;;63.50;;
73084;SDS011;62974;49.460;10.892;2022-09-09T06:53:37;61.10;;;58.90;;
73084;SDS011;62974;49.460;10.892;2022-09-09T06:56:17;65.43;;;62.90;;
73084;SDS011;62974;49.460;10.892;2022-09-09T06:58:49;66.30;;;63.90;;
73084;SDS011;62974;49.460;10.892;2022-09-09T07:01:18;64.00;;;61.80;;
73084;SDS011;62974;49.460;10.892;2022-09-09T07:03:47;63.17;;;60.83;;
73084;SDS011;62974;49.460;10.892;2022-09-09T07:06:18;62.90;;;60.70;;
73084;SDS011;62974;49.460;10.892;2022-09-09T07:08:50;62.30;;;60.00;;
73084;SDS011;62974;49.460;10.892;2022-09-09T07:11:22;65.30;;;63.00;;
73084;SDS011;62974;49.460;10.892;2022-09-09T07:13:53;61.83;;;59.63;;
73084;SDS011;62974;49.460;10.892;2022-09-09T07:16:21;63.63;;;61.00;;
73084;SDS011;62974;49.460;10.892;2022-09-09T07:18:51;64.70;;;62.20;;
73084;SDS011;62974;49.460;10.892;2022-09-09T07:21:24;64.07;;;61.60;;
73084;SDS011;62974;49.460;10.892;2022-09-09T07:23:53;65.50;;;63.20;;
73084;SDS011;62974;49.460;10.892;2022-09-09T07:26:22;62.47;;;60.23;;
73084;SDS011;62974;49.460;10.892;2022-09-09T07:28:53;67.83;;;64.90;;
73084;SDS011;62974;49.460;10.892;2022-09-09T07:31:23;65.17;;;62.90;;
73084;SDS011;62974;49.460;10.892;2022-09-09T07:33:53;66.37;;;64.00;;
73084;SDS011;62974;49.460;10.892;2022-09-09T07:36:22;65.97;;;63.57;;
73084;SDS011;62974;49.460;10.892;2022-09-09T07:38:58;63.67;;;61.17;;
73084;SDS011;62974;49.460;10.892;2022-09-09T07:41:29;67.37;;;64.70;;
73084;SDS011;62974;49.460;10.892;2022-09-09T07:44:03;65.33;;;62.97;;
73084;SDS011;62974;49.460;10.892;2022-09-09T07:46:33;64.80;;;62.33;;
73084;SDS011;62974;49.460;10.892;2022-09-09T07:49:01;63.17;;;60.93;;
73084;SDS011;62974;49.460;10.892;2022-09-09T07:51:29;63.67;;;61.37;;
73084;SDS011;62974;49.460;10.892;2022-09-09T07:54:00;62.60;;;60.50;;
73084;SDS011;62974;49.460;10.892;2022-09-09T07:56:29;59.37;;;57.27;;
73084;SDS011;62974;49.460;10.892;2022-09-09T07:59:00;64.37;;;62.07;;
73084;SDS011;62974;49.460;10.892;2022-09-09T08:01:29;60.03;;;57.93;;
73084;SDS011;62974;49.460;10.892;2022-09-09T08:03:59;60.23;;;57.70;;
73084;SDS011;62974;49.460;10.892;2022-09-09T08:06:28;58.83;;;56.70;;
73084;SDS011;62974;49.460;10.892;2022-09-09T08:08:57;60.20;;;58.20;;
73084;SDS011;62974;49.460;10.892;2022-09-09T08:11:25;60.37;;;58.37;;
73084;SDS011;62974;49.460;10.892;2022-09-09T08:13:54;64.60;;;62.30;;
73084;SDS011;62974;49.460;10.892;2022-09-09T08:16:29;62.53;;;60.23;;
73084;SDS011;62974;49.460;10.892;2022-09-09T08:18:59;65.00;;;62.70;;
73084;SDS011;62974;49.460;10.892;2022-09-09T08:21:28;63.17;;;60.70;;
73084;SDS011;62974;49.460;10.892;2022-09-09T08:23:58;64.30;;;62.10;;
73084;SDS011;62974;49.460;10.892;2022-09-09T08:26:28;63.17;;;60.80;;
73084;SDS011;62974;49.460;10.892;2022-09-09T08:28:57;64.53;;;62.33;;
73084;SDS011;62974;49.460;10.892;2022-09-09T08:31:29;63.57;;;61.23;;
73084;SDS011;62974;49.460;10.892;2022-09-09T08:33:59;62.80;;;60.40;;
73084;SDS011;62974;49.460;10.892;2022-09-09T08:36:30;64.70;;;62.40;;
73084;SDS011;62974;49.460;10.892;2022-09-09T08:38:59;60.63;;;58.63;;
73084;SDS011;62974;49.460;10.892;2022-09-09T08:41:30;59.00;;;56.90;;
73084;SDS011;62974;49.460;10.892;2022-09-09T08:44:07;59.27;;;57.27;;
73084;SDS011;62974;49.460;10.892;2022-09-09T08:46:41;59.27;;;57.10;;
73084;SDS011;62974;49.460;10.892;2022-09-09T08:49:21;59.90;;;57.90;;
73084;SDS011;62974;49.460;10.892;2022-09-09T08:51:57;58.63;;;56.60;;
73084;SDS011;62974;49.460;10.892;2022-09-09T08:54:25;57.83;;;55.63;;
73084;SDS011;62974;49.460;10.892;2022-09-09T08:57:19;57.43;;;55.53;;
73084;SDS011;62974;49.460;10.892;2022-09-09T08:59:52;59.33;;;57.00;;
73084;SDS011;62974;49.460;10.892;2022-09-09T09:02:23;58.30;;;56.40;;
73084;SDS011;62974;49.460;10.892;2022-09-09T09:04:57;58.90;;;57.00;;
73084;SDS011;62974;49.460;10.892;2022-09-09T09:07:37;60.43;;;58.30;;
73084;SDS011;62974;49.460;10.892;2022-09-09T09:10:19;62.77;;;60.57;;
73084;SDS011;62974;49.460;10.892;2022-09-09T09:13:07;55.70;;;53.80;;
73084;SDS011;62974;49.460;10.892;2022-09-09T09:15:42;60.00;;;57.90;;
73084;SDS011;62974;49.460;10.892;2022-09-09T09:18:15;61.17;;;59.07;;
73084;SDS011;62974;49.460;10.892;2022-09-09T09:20:47;60.53;;;58.60;;
73084;SDS011;62974;49.460;10.892;2022-09-09T09:23:21;61.97;;;59.77;;
73084;SDS011;62974;49.460;10.892;2022-09-09T09:25:50;60.80;;;58.80;;
73084;SDS011;62974;49.460;10.892;2022-09-09T09:28:24;59.50;;;57.40;;
73084;SDS011;62974;49.460;10.892;2022-09-09T09:30:54;59.43;;;57.47;;
73084;SDS011;62974;49.460;10.892;2022-09-09T09:33:27;61.67;;;59.57;;
73084;SDS011;62974;49.460;10.892;2022-09-09T09:36:02;59.23;;;56.90;;
73084;SDS011;62974;49.460;10.892;2022-09-09T09:38:33;62.87;;;60.73;;
73084;SDS011;62974;49.460;10.892;2022-09-09T09:41:29;60.60;;;58.50;;
73084;SDS011;62974;49.460;10.892;2022-09-09T09:43:58;61.00;;;58.50;;
73084;SDS011;62974;49.460;10.892;2022-09-09T09:46:26;61.13;;;58.97;;
73084;SDS011;62974;49.460;10.892;2022-09-09T09:48:59;61.33;;;59.03;;
73084;SDS011;62974;49.460;10.892;2022-09-09T09:51:29;61.93;;;59.93;;
73084;SDS011;62974;49.460;10.892;2022-09-09T09:54:03;59.33;;;57.20;;
73084;SDS011;62974;49.460;10.892;2022-09-09T09:56:36;58.33;;;56.23;;
73084;SDS011;62974;49.460;10.892;2022-09-09T09:59:05;60.17;;;58.00;;
73084;SDS011;62974;49.460;10.892;2022-09-09T10:02:20;60.13;;;58.13;;
73084;SDS011;62974;49.460;10.892;2022-09-09T10:05:01;60.27;;;57.80;;
73084;SDS011;62974;49.460;10.892;2022-09-09T10:07:30;61.87;;;59.67;;
73084;SDS011;62974;49.460;10.892;2022-09-09T10:09:59;61.17;;;59.13;;
73084;SDS011;62974;49.460;10.892;2022-09-09T10:12:30;62.50;;;60.30;;
73084;SDS011;62974;49.460;10.892;2022-09-09T10:15:15;61.97;;;59.70;;
73084;SDS011;62974;49.460;10.892;2022-09-09T10:18:00;61.73;;;59.60;;
73084;SDS011;62974;49.460;10.892;2022-09-09T10:20:42;60.97;;;58.70;;
73084;SDS011;62974;49.460;10.892;2022-09-09T10:23:24;62.17;;;60.07;;
73084;SDS011;62974;49.460;10.892;2022-09-09T10:26:04;58.47;;;56.30;;
73084;SDS011;62974;49.460;10.892;2022-09-09T10:28:54;61.53;;;59.30;;
73084;SDS011;62974;49.460;10.892;2022-09-09T10:31:34;61.90;;;59.90;;
73084;SDS011;62974;49.460;10.892;2022-09-09T10:34:11;56.73;;;54.87;;
73084;SDS011;62974;49.460;10.892;2022-09-09T10:36:49;61.80;;;59.60;;
73084;SDS011;62974;49.460;10.892;2022-09-09T10:39:22;62.40;;;60.07;;
73084;SDS011;62974;49.460;10.892;2022-09-09T10:42:08;60.90;;;58.90;;
73084;SDS011;62974;49.460;10.892;2022-09-09T10:44:42;58.57;;;56.27;;
73084;SDS011;62974;49.460;10.892;2022-09-09T10:47:25;61.00;;;58.80;;
73084;SDS011;62974;49.460;10.892;2022-09-09T10:50:12;60.80;;;58.80;;
73084;SDS011;62974;49.460;10.892;2022-09-09T10:53:15;60.43;;;58.40;;
73084;SDS011;62974;49.460;10.892;2022-09-09T10:55:52;60.30;;;58.20;;
73084;SDS011;62974;49.460;10.892;2022-09-09T10:58:25;60.73;;;58.63;;
73084;SDS011;62974;49.460;10.892;2022-09-09T11:00:59;55.77;;;53.73;;
73084;SDS011;62974;49.460;10.892;2022-09-09T11:03:30;61.80;;;59.63;;
73084;SDS011;62974;49.460;10.892;2022-09-09T11:06:01;57.17;;;55.07;;
73084;SDS011;62974;49.460;10.892;2022-09-09T11:08:35;58.10;;;55.93;;
73084;SDS011;62974;49.460;10.892;2022-09-09T11:11:07;57.00;;;54.90;;
73084;SDS011;62974;49.460;10.892;2022-09-09T11:13:42;58.33;;;56.33;;
73084;SDS011;62974;49.460;10.892;2022-09-09T11:16:17;57.47;;;55.53;;
73084;SDS011;62974;49.460;10.892;2022-09-09T11:18:52;58.47;;;56.50;;
73084;SDS011;62974;49.460;10.892;2022-09-09T11:21:24;57.50;;;55.50;;
73084;SDS011;62974;49.460;10.892;2022-09-09T11:26:46;58.00;;;56.07;;
73084;SDS011;62974;49.460;10.892;2022-09-09T11:29:42;57.83;;;55.80;;
73084;SDS011;62974;49.460;10.892;2022-09-09T11:32:32;59.37;;;57.30;;
73084;SDS011;62974;49.460;10.892;2022-09-09T11:35:19;57.40;;;54.80;;
73084;SDS011;62974;49.460;10.892;2022-09-09T11:38:08;59.57;;;56.87;;
73084;SDS011;62974;49.460;10.892;2022-09-09T11:40:46;59.73;;;57.73;;
73084;SDS011;62974;49.460;10.892;2022-09-09T11:43:23;57.47;;;55.57;;
73084;SDS011;62974;49.460;10.892;2022-09-09T11:45:55;58.47;;;56.30;;
73084;SDS011;62974;49.460;10.892;2022-09-09T11:48:32;58.30;;;56.30;;
73084;SDS011;62974;49.460;10.892;2022-09-09T11:51:03;58.20;;;56.30;;
73084;SDS011;62974;49.460;10.892;2022-09-09T11:53:50;61.13;;;59.10;;
73084;SDS011;62974;49.460;10.892;2022-09-09T11:56:29;59.53;;;57.03;;
73084;SDS011;62974;49.460;10.892;2022-09-09T11:59:04;59.50;;;57.40;;
73084;SDS011;62974;49.460;10.892;2022-09-09T12:01:37;58.17;;;56.13;;
73084;SDS011;62974;49.460;10.892;2022-09-09T12:07:21;61.83;;;59.73;;
73084;SDS011;62974;49.460;10.892;2022-09-09T12:09:56;61.07;;;58.87;;
73084;SDS011;62974;49.460;10.892;2022-09-09T12:12:29;63.97;;;61.67;;
73084;SDS011;62974;49.460;10.892;2022-09-09T12:15:21;61.70;;;59.23;;
73084;SDS011;62974;49.460;10.892;2022-09-09T12:17:56;58.67;;;56.30;;
73084;SDS011;62974;49.460;10.892;2022-09-09T12:20:33;63.40;;;61.30;;
73084;SDS011;62974;49.460;10.892;2022-09-09T12:25:58;61.60;;;59.60;;
73084;SDS011;62974;49.460;10.892;2022-09-09T12:28:43;61.63;;;59.73;;
73084;SDS011;62974;49.460;10.892;2022-09-09T12:31:24;59.00;;;57.10;;
73084;SDS011;62974;49.460;10.892;2022-09-09T12:34:02;58.53;;;56.60;;
73084;SDS011;62974;49.460;10.892;2022-09-09T12:36:37;61.63;;;59.33;;
73084;SDS011;62974;49.460;10.892;2022-09-09T12:39:14;60.70;;;58.80;;
73084;SDS011;62974;49.460;10.892;2022-09-09T12:41:52;58.03;;;56.13;;
73084;SDS011;62974;49.460;10.892;2022-09-09T12:44:24;57.60;;;55.20;;
73084;SDS011;62974;49.460;10.892;2022-09-09T12:46:55;58.90;;;56.47;;
73084;SDS011;62974;49.460;10.892;2022-09-09T12:49:29;58.03;;;55.83;;
73084;SDS011;62974;49.460;10.892;2022-09-09T12:52:06;57.17;;;55.17;;
73084;SDS011;62974;49.460;10.892;2022-09-09T12:54:38;58.27;;;55.97;;
73084;SDS011;62974;49.460;10.892;2022-09-09T12:57:13;56.97;;;54.97;;
73084;SDS011;62974;49.460;10.892;2022-09-09T12:59:45;60.83;;;58.37;;
73084;SDS011;62974;49.460;10.892;2022-09-09T13:02:23;58.50;;;56.30;;
73084;SDS011;62974;49.460;10.892;2022-09-09T13:04:55;58.90;;;56.73;;
73084;SDS011;62974;49.460;10.892;2022-09-09T13:07:43;58.50;;;56.30;;
73084;SDS011;62974;49.460;10.892;2022-09-09T13:10:12;61.17;;;59.07;;
73084;SDS011;62974;49.460;10.892;2022-09-09T13:13:01;63.93;;;61.23;;
73084;SDS011;62974;49.460;10.892;2022-09-09T13:15:33;63.70;;;61.50;;
73084;SDS011;62974;49.460;10.892;2022-09-09T13:18:05;62.70;;;60.30;;
73084;SDS011;62974;49.460;10.892;2022-09-09T13:20:45;61.23;;;58.97;;
73084;SDS011;62974;49.460;10.892;2022-09-09T13:23:29;61.90;;;59.63;;
73084;SDS011;62974;49.460;10.892;2022-09-09T13:26:00;63.23;;;60.83;;
73084;SDS011;62974;49.460;10.892;2022-09-09T13:28:32;57.13;;;54.90;;
73084;SDS011;62974;49.460;10.892;2022-09-09T13:31:03;58.67;;;56.60;;
73084;SDS011;62974;49.460;10.892;2022-09-09T14:10:00;58.93;;;56.93;;
73084;SDS011;62974;49.460;10.892;2022-09-09T14:12:28;57.00;;;55.10;;
73084;SDS011;62974;49.460;10.892;2022-09-09T14:22:54;59.43;;;57.33;;
73084;SDS011;62974;49.460;10.892;2022-09-09T14:25:30;60.90;;;58.77;;
73084;SDS011;62974;49.460;10.892;2022-09-09T14:28:00;59.60;;;57.30;;
73084;SDS011;62974;49.460;10.892;2022-09-09T14:30:31;60.13;;;57.93;;
73084;SDS011;62974;49.460;10.892;2022-09-09T14:33:03;60.50;;;58.30;;
73084;SDS011;62974;49.460;10.892;2022-09-09T14:35:36;57.77;;;55.80;;
73084;SDS011;62974;49.460;10.892;2022-09-09T14:38:08;58.63;;;56.47;;
73084;SDS011;62974;49.460;10.892;2022-09-09T14:40:46;58.47;;;56.30;;
73084;SDS011;62974;49.460;10.892;2022-09-09T14:43:15;59.97;;;57.87;;
73084;SDS011;62974;49.460;10.892;2022-09-09T14:45:47;57.37;;;55.13;;
73084;SDS011;62974;49.460;10.892;2022-09-09T14:48:17;59.70;;;57.60;;
73084;SDS011;62974;49.460;10.892;2022-09-09T14:50:46;59.50;;;57.27;;
73084;SDS011;62974;49.460;10.892;2022-09-09T14:53:16;58.70;;;56.60;;
73084;SDS011;62974;49.460;10.892;2022-09-09T14:55:48;58.30;;;56.00;;
73084;SDS011;62974;49.460;10.892;2022-09-09T14:58:17;61.13;;;58.77;;
73084;SDS011;62974;49.460;10.892;2022-09-09T15:00:48;57.80;;;55.80;;
73084;SDS011;62974;49.460;10.892;2022-09-09T15:03:16;58.20;;;56.30;;
73084;SDS011;62974;49.460;10.892;2022-09-09T15:05:45;59.70;;;57.70;;
73084;SDS011;62974;49.460;10.892;2022-09-09T15:08:15;58.13;;;56.03;;
73084;SDS011;62974;49.460;10.892;2022-09-09T15:10:44;59.23;;;57.33;;
73084;SDS011;62974;49.460;10.892;2022-09-09T15:13:18;60.63;;;58.13;;
73084;SDS011;62974;49.460;10.892;2022-09-09T15:26:14;58.10;;;56.30;;
73084;SDS011;62974;49.460;10.892;2022-09-09T15:28:43;59.87;;;57.77;;
73084;SDS011;62974;49.460;10.892;2022-09-09T15:31:18;60.77;;;58.70;;
73084;SDS011;62974;49.460;10.892;2022-09-09T15:33:51;58.90;;;57.00;;
73084;SDS011;62974;49.460;10.892;2022-09-09T15:36:27;57.93;;;56.03;;
73084;SDS011;62974;49.460;10.892;2022-09-09T15:38:56;59.37;;;57.40;;
73084;SDS011;62974;49.460;10.892;2022-09-09T15:41:30;59.87;;;57.77;;
73084;SDS011;62974;49.460;10.892;2022-09-09T16:04:53;62.67;;;60.30;;